sensor_id;sensor_type;location;lat;lon;timestamp;P1;durP1;ratioP1;P2;durP2;ratioP2
38994;SDS011;24769;18.712;99.000;2023-02-04T00:01:49;129.00;;;123.80;;
38994;SDS011;24769;18.712;99.000;2023-02-04T00:04:15;118.80;;;116.20;;
38994;SDS011;24769;18.712;99.000;2023-02-04T00:06:42;123.80;;;119.40;;
38994;SDS011;24769;18.712;99.000;2023-02-04T00:09:09;123.50;;;121.50;;
38994;SDS011;24769;18.712;99.000;2023-02-04T00:11:36;124.80;;;121.80;;
38994;SDS011;24769;18.712;99.000;2023-02-04T00:14:02;129.00;;;126.40;;
38994;SDS011;24769;18.712;99.000;2023-02-04T00:16:29;154.75;;;148.50;;
38994;SDS011;24769;18.712;99.000;2023-02-04T00:18:56;145.25;;;143.75;;
38994;SDS011;24769;18.712;99.000;2023-02-04T00:21:22;161.75;;;156.75;;
38994;SDS011;24769;18.712;99.000;2023-02-04T00:23:49;153.75;;;152.00;;
38994;SDS011;24769;18.712;99.000;2023-02-04T00:26:16;143.25;;;142.25;;
38994;SDS011;24769;18.712;99.000;2023-02-04T00:28:42;127.00;;;126.50;;
38994;SDS011;24769;18.712;99.000;2023-02-04T00:31:09;125.40;;;124.40;;
38994;SDS011;24769;18.712;99.000;2023-02-04T00:33:36;132.00;;;128.20;;
38994;SDS011;24769;18.712;99.000;2023-02-04T00:36:02;132.60;;;130.00;;
38994;SDS011;24769;18.712;99.000;2023-02-04T00:38:29;133.00;;;130.40;;
38994;SDS011;24769;18.712;99.000;2023-02-04T00:40:56;133.40;;;129.80;;
38994;SDS011;24769;18.712;99.000;2023-02-04T00:43:22;122.20;;;122.20;;
38994;SDS011;24769;18.712;99.000;2023-02-04T00:45:49;135.00;;;131.60;;
38994;SDS011;24769;18.712;99.000;2023-02-04T00:48:15;142.60;;;141.20;;
38994;SDS011;24769;18.712;99.000;2023-02-04T00:50:42;134.80;;;133.80;;
38994;SDS011;24769;18.712;99.000;2023-02-04T00:53:09;122.40;;;120.60;;
38994;SDS011;24769;18.712;99.000;2023-02-04T00:55:35;132.80;;;130.40;;
38994;SDS011;24769;18.712;99.000;2023-02-04T00:58:02;127.80;;;122.60;;
38994;SDS011;24769;18.712;99.000;2023-02-04T01:00:29;140.00;;;138.60;;
38994;SDS011;24769;18.712;99.000;2023-02-04T01:02:55;137.00;;;130.80;;
38994;SDS011;24769;18.712;99.000;2023-02-04T01:05:22;122.60;;;118.60;;
38994;SDS011;24769;18.712;99.000;2023-02-04T01:07:49;128.00;;;124.20;;
38994;SDS011;24769;18.712;99.000;2023-02-04T01:10:15;130.00;;;124.60;;
38994;SDS011;24769;18.712;99.000;2023-02-04T01:12:42;113.40;;;112.00;;
38994;SDS011;24769;18.712;99.000;2023-02-04T01:15:09;125.20;;;121.80;;
38994;SDS011;24769;18.712;99.000;2023-02-04T01:17:36;118.80;;;114.60;;
38994;SDS011;24769;18.712;99.000;2023-02-04T01:20:02;122.20;;;121.00;;
38994;SDS011;24769;18.712;99.000;2023-02-04T01:22:29;124.60;;;122.00;;
38994;SDS011;24769;18.712;99.000;2023-02-04T01:24:56;119.20;;;116.80;;
38994;SDS011;24769;18.712;99.000;2023-02-04T01:27:22;114.40;;;113.60;;
38994;SDS011;24769;18.712;99.000;2023-02-04T01:29:49;122.00;;;119.40;;
38994;SDS011;24769;18.712;99.000;2023-02-04T01:32:16;119.40;;;115.00;;
38994;SDS011;24769;18.712;99.000;2023-02-04T01:34:42;115.20;;;114.00;;
38994;SDS011;24769;18.712;99.000;2023-02-04T01:37:09;118.00;;;116.60;;
38994;SDS011;24769;18.712;99.000;2023-02-04T01:39:35;113.40;;;110.40;;
38994;SDS011;24769;18.712;99.000;2023-02-04T01:42:02;118.60;;;116.80;;
38994;SDS011;24769;18.712;99.000;2023-02-04T01:44:29;119.80;;;117.80;;
38994;SDS011;24769;18.712;99.000;2023-02-04T01:46:57;126.80;;;122.00;;
38994;SDS011;24769;18.712;99.000;2023-02-04T01:49:24;123.20;;;120.60;;
38994;SDS011;24769;18.712;99.000;2023-02-04T01:51:51;118.00;;;115.80;;
38994;SDS011;24769;18.712;99.000;2023-02-04T01:54:18;113.60;;;111.80;;
38994;SDS011;24769;18.712;99.000;2023-02-04T01:56:46;114.40;;;113.20;;
38994;SDS011;24769;18.712;99.000;2023-02-04T01:59:16;102.40;;;102.40;;
38994;SDS011;24769;18.712;99.000;2023-02-04T02:01:44;117.20;;;115.60;;
38994;SDS011;24769;18.712;99.000;2023-02-04T02:04:14;116.00;;;113.80;;
38994;SDS011;24769;18.712;99.000;2023-02-04T02:06:50;111.60;;;108.60;;
38994;SDS011;24769;18.712;99.000;2023-02-04T02:09:19;99.60;;;98.80;;
38994;SDS011;24769;18.712;99.000;2023-02-04T02:11:46;103.40;;;100.60;;
38994;SDS011;24769;18.712;99.000;2023-02-04T02:14:13;113.20;;;112.00;;
38994;SDS011;24769;18.712;99.000;2023-02-04T02:16:40;114.20;;;112.40;;
38994;SDS011;24769;18.712;99.000;2023-02-04T02:19:08;104.00;;;104.00;;
38994;SDS011;24769;18.712;99.000;2023-02-04T02:21:43;106.80;;;104.80;;
38994;SDS011;24769;18.712;99.000;2023-02-04T02:24:35;110.60;;;109.00;;
38994;SDS011;24769;18.712;99.000;2023-02-04T02:27:03;109.80;;;109.40;;
38994;SDS011;24769;18.712;99.000;2023-02-04T02:29:33;100.40;;;100.20;;
38994;SDS011;24769;18.712;99.000;2023-02-04T02:32:01;104.80;;;103.00;;
38994;SDS011;24769;18.712;99.000;2023-02-04T02:34:28;110.00;;;107.60;;
38994;SDS011;24769;18.712;99.000;2023-02-04T02:36:56;105.80;;;104.20;;
38994;SDS011;24769;18.712;99.000;2023-02-04T02:39:24;107.80;;;106.40;;
38994;SDS011;24769;18.712;99.000;2023-02-04T02:41:51;110.80;;;110.00;;
38994;SDS011;24769;18.712;99.000;2023-02-04T02:44:19;95.80;;;94.60;;
38994;SDS011;24769;18.712;99.000;2023-02-04T02:46:46;103.20;;;99.80;;
38994;SDS011;24769;18.712;99.000;2023-02-04T02:49:14;71.00;;;57.80;;
38994;SDS011;24769;18.712;99.000;2023-02-04T02:51:42;106.40;;;105.80;;
38994;SDS011;24769;18.712;99.000;2023-02-04T02:54:31;99.60;;;98.60;;
38994;SDS011;24769;18.712;99.000;2023-02-04T02:56:58;108.00;;;105.75;;
38994;SDS011;24769;18.712;99.000;2023-02-04T02:59:26;110.60;;;107.60;;
38994;SDS011;24769;18.712;99.000;2023-02-04T03:02:02;110.00;;;106.00;;
38994;SDS011;24769;18.712;99.000;2023-02-04T03:04:30;109.20;;;106.20;;
38994;SDS011;24769;18.712;99.000;2023-02-04T03:07:02;111.00;;;107.80;;
38994;SDS011;24769;18.712;99.000;2023-02-04T03:09:29;105.00;;;104.20;;
38994;SDS011;24769;18.712;99.000;2023-02-04T03:11:58;106.00;;;104.80;;
38994;SDS011;24769;18.712;99.000;2023-02-04T03:14:24;101.00;;;100.40;;
38994;SDS011;24769;18.712;99.000;2023-02-04T03:16:52;111.20;;;107.60;;
38994;SDS011;24769;18.712;99.000;2023-02-04T03:19:21;102.80;;;100.40;;
38994;SDS011;24769;18.712;99.000;2023-02-04T03:21:52;104.20;;;100.60;;
38994;SDS011;24769;18.712;99.000;2023-02-04T03:24:20;109.40;;;106.20;;
38994;SDS011;24769;18.712;99.000;2023-02-04T03:26:47;110.20;;;107.80;;
38994;SDS011;24769;18.712;99.000;2023-02-04T03:29:16;106.60;;;104.60;;
38994;SDS011;24769;18.712;99.000;2023-02-04T03:31:45;102.00;;;98.60;;
38994;SDS011;24769;18.712;99.000;2023-02-04T03:34:12;108.00;;;107.20;;
38994;SDS011;24769;18.712;99.000;2023-02-04T03:36:38;108.80;;;108.80;;
38994;SDS011;24769;18.712;99.000;2023-02-04T03:39:05;95.80;;;95.40;;
38994;SDS011;24769;18.712;99.000;2023-02-04T03:41:31;101.00;;;98.80;;
38994;SDS011;24769;18.712;99.000;2023-02-04T03:43:58;101.00;;;99.20;;
38994;SDS011;24769;18.712;99.000;2023-02-04T03:46:24;100.40;;;99.40;;
38994;SDS011;24769;18.712;99.000;2023-02-04T03:48:52;108.80;;;105.40;;
38994;SDS011;24769;18.712;99.000;2023-02-04T03:51:19;103.20;;;102.80;;
38994;SDS011;24769;18.712;99.000;2023-02-04T03:53:45;103.20;;;101.80;;
38994;SDS011;24769;18.712;99.000;2023-02-04T03:56:12;99.60;;;99.60;;
38994;SDS011;24769;18.712;99.000;2023-02-04T03:58:38;102.20;;;101.00;;
38994;SDS011;24769;18.712;99.000;2023-02-04T04:01:05;106.40;;;106.00;;
38994;SDS011;24769;18.712;99.000;2023-02-04T04:03:31;95.40;;;95.00;;
38994;SDS011;24769;18.712;99.000;2023-02-04T04:05:58;100.40;;;100.00;;
38994;SDS011;24769;18.712;99.000;2023-02-04T04:08:24;102.20;;;99.60;;
38994;SDS011;24769;18.712;99.000;2023-02-04T04:10:51;101.80;;;101.20;;
38994;SDS011;24769;18.712;99.000;2023-02-04T04:13:18;90.60;;;89.20;;
38994;SDS011;24769;18.712;99.000;2023-02-04T04:15:44;91.00;;;90.20;;
38994;SDS011;24769;18.712;99.000;2023-02-04T04:18:11;99.60;;;96.80;;
38994;SDS011;24769;18.712;99.000;2023-02-04T04:20:37;93.00;;;90.20;;
38994;SDS011;24769;18.712;99.000;2023-02-04T04:23:04;94.00;;;93.50;;
38994;SDS011;24769;18.712;99.000;2023-02-04T04:25:30;95.50;;;95.50;;
38994;SDS011;24769;18.712;99.000;2023-02-04T04:27:57;96.75;;;96.50;;
38994;SDS011;24769;18.712;99.000;2023-02-04T04:30:23;91.25;;;90.50;;
38994;SDS011;24769;18.712;99.000;2023-02-04T04:32:50;90.25;;;89.50;;
38994;SDS011;24769;18.712;99.000;2023-02-04T04:35:16;86.00;;;85.50;;
38994;SDS011;24769;18.712;99.000;2023-02-04T04:37:43;89.75;;;88.50;;
38994;SDS011;24769;18.712;99.000;2023-02-04T04:40:10;85.75;;;84.75;;
38994;SDS011;24769;18.712;99.000;2023-02-04T04:42:37;85.25;;;84.75;;
38994;SDS011;24769;18.712;99.000;2023-02-04T04:45:07;89.50;;;88.50;;
38994;SDS011;24769;18.712;99.000;2023-02-04T04:47:35;87.75;;;86.25;;
38994;SDS011;24769;18.712;99.000;2023-02-04T04:50:02;79.50;;;78.50;;
38994;SDS011;24769;18.712;99.000;2023-02-04T04:52:29;91.75;;;90.00;;
38994;SDS011;24769;18.712;99.000;2023-02-04T04:54:55;86.00;;;85.25;;
38994;SDS011;24769;18.712;99.000;2023-02-04T04:57:22;82.25;;;81.50;;
38994;SDS011;24769;18.712;99.000;2023-02-04T04:59:48;85.75;;;83.50;;
38994;SDS011;24769;18.712;99.000;2023-02-04T05:02:15;79.75;;;79.50;;
38994;SDS011;24769;18.712;99.000;2023-02-04T05:04:41;91.25;;;87.75;;
38994;SDS011;24769;18.712;99.000;2023-02-04T05:07:08;82.75;;;79.00;;
38994;SDS011;24769;18.712;99.000;2023-02-04T05:09:34;86.00;;;85.25;;
38994;SDS011;24769;18.712;99.000;2023-02-04T05:12:01;79.00;;;73.50;;
38994;SDS011;24769;18.712;99.000;2023-02-04T05:14:27;80.75;;;79.50;;
38994;SDS011;24769;18.712;99.000;2023-02-04T05:16:54;87.50;;;87.50;;
38994;SDS011;24769;18.712;99.000;2023-02-04T05:19:20;79.25;;;78.00;;
38994;SDS011;24769;18.712;99.000;2023-02-04T05:21:47;84.25;;;83.75;;
38994;SDS011;24769;18.712;99.000;2023-02-04T05:24:13;78.50;;;78.00;;
38994;SDS011;24769;18.712;99.000;2023-02-04T05:26:40;83.00;;;82.75;;
38994;SDS011;24769;18.712;99.000;2023-02-04T05:29:06;79.00;;;77.50;;
38994;SDS011;24769;18.712;99.000;2023-02-04T05:31:34;85.50;;;85.00;;
38994;SDS011;24769;18.712;99.000;2023-02-04T05:34:01;83.50;;;81.75;;
38994;SDS011;24769;18.712;99.000;2023-02-04T05:36:27;79.25;;;76.50;;
38994;SDS011;24769;18.712;99.000;2023-02-04T05:38:54;83.50;;;81.00;;
38994;SDS011;24769;18.712;99.000;2023-02-04T05:41:20;78.75;;;76.75;;
38994;SDS011;24769;18.712;99.000;2023-02-04T05:43:47;76.50;;;74.00;;
38994;SDS011;24769;18.712;99.000;2023-02-04T05:46:13;78.25;;;76.00;;
38994;SDS011;24769;18.712;99.000;2023-02-04T05:48:40;87.50;;;87.00;;
38994;SDS011;24769;18.712;99.000;2023-02-04T05:51:06;78.75;;;78.00;;
38994;SDS011;24769;18.712;99.000;2023-02-04T05:53:33;77.75;;;74.50;;
38994;SDS011;24769;18.712;99.000;2023-02-04T05:55:59;78.50;;;76.25;;
38994;SDS011;24769;18.712;99.000;2023-02-04T05:58:26;78.50;;;76.50;;
38994;SDS011;24769;18.712;99.000;2023-02-04T06:01:01;79.25;;;78.00;;
38994;SDS011;24769;18.712;99.000;2023-02-04T06:03:28;80.00;;;79.75;;
38994;SDS011;24769;18.712;99.000;2023-02-04T06:05:55;72.00;;;64.50;;
38994;SDS011;24769;18.712;99.000;2023-02-04T06:08:22;75.25;;;70.50;;
38994;SDS011;24769;18.712;99.000;2023-02-04T06:10:49;77.00;;;74.75;;
38994;SDS011;24769;18.712;99.000;2023-02-04T06:13:15;78.75;;;75.50;;
38994;SDS011;24769;18.712;99.000;2023-02-04T06:15:42;76.75;;;74.00;;
38994;SDS011;24769;18.712;99.000;2023-02-04T06:18:08;76.75;;;74.25;;
38994;SDS011;24769;18.712;99.000;2023-02-04T06:20:35;79.75;;;79.25;;
38994;SDS011;24769;18.712;99.000;2023-02-04T06:23:01;77.50;;;74.50;;
38994;SDS011;24769;18.712;99.000;2023-02-04T06:25:28;77.25;;;73.25;;
38994;SDS011;24769;18.712;99.000;2023-02-04T06:27:54;77.00;;;75.75;;
38994;SDS011;24769;18.712;99.000;2023-02-04T06:30:21;78.00;;;76.25;;
38994;SDS011;24769;18.712;99.000;2023-02-04T06:32:47;75.75;;;70.25;;
38994;SDS011;24769;18.712;99.000;2023-02-04T06:35:14;81.00;;;79.00;;
38994;SDS011;24769;18.712;99.000;2023-02-04T06:37:41;77.00;;;74.00;;
38994;SDS011;24769;18.712;99.000;2023-02-04T06:40:07;75.50;;;70.75;;
38994;SDS011;24769;18.712;99.000;2023-02-04T06:42:35;77.75;;;76.00;;
38994;SDS011;24769;18.712;99.000;2023-02-04T06:45:02;82.00;;;81.00;;
38994;SDS011;24769;18.712;99.000;2023-02-04T06:47:29;78.00;;;75.25;;
38994;SDS011;24769;18.712;99.000;2023-02-04T06:49:55;79.25;;;78.75;;
38994;SDS011;24769;18.712;99.000;2023-02-04T06:52:22;76.50;;;73.50;;
38994;SDS011;24769;18.712;99.000;2023-02-04T06:54:48;77.75;;;73.50;;
38994;SDS011;24769;18.712;99.000;2023-02-04T06:57:15;81.25;;;80.00;;
38994;SDS011;24769;18.712;99.000;2023-02-04T06:59:41;71.75;;;63.75;;
38994;SDS011;24769;18.712;99.000;2023-02-04T07:02:09;77.00;;;72.75;;
38994;SDS011;24769;18.712;99.000;2023-02-04T07:04:36;74.00;;;68.25;;
38994;SDS011;24769;18.712;99.000;2023-02-04T07:07:03;74.00;;;69.50;;
38994;SDS011;24769;18.712;99.000;2023-02-04T07:09:29;75.00;;;69.50;;
38994;SDS011;24769;18.712;99.000;2023-02-04T07:11:56;74.50;;;71.25;;
38994;SDS011;24769;18.712;99.000;2023-02-04T07:14:22;73.75;;;68.25;;
38994;SDS011;24769;18.712;99.000;2023-02-04T07:16:49;75.00;;;70.50;;
38994;SDS011;24769;18.712;99.000;2023-02-04T07:19:15;74.75;;;70.25;;
38994;SDS011;24769;18.712;99.000;2023-02-04T07:21:42;71.75;;;64.75;;
38994;SDS011;24769;18.712;99.000;2023-02-04T07:24:08;72.00;;;64.00;;
38994;SDS011;24769;18.712;99.000;2023-02-04T07:26:35;65.75;;;55.25;;
38994;SDS011;24769;18.712;99.000;2023-02-04T07:29:01;74.00;;;69.75;;
38994;SDS011;24769;18.712;99.000;2023-02-04T07:31:28;74.25;;;70.00;;
38994;SDS011;24769;18.712;99.000;2023-02-04T07:33:54;73.25;;;67.25;;
38994;SDS011;24769;18.712;99.000;2023-02-04T07:36:21;74.00;;;68.50;;
38994;SDS011;24769;18.712;99.000;2023-02-04T07:38:47;73.75;;;69.25;;
38994;SDS011;24769;18.712;99.000;2023-02-04T07:41:14;76.00;;;73.25;;
38994;SDS011;24769;18.712;99.000;2023-02-04T07:43:40;76.50;;;71.75;;
38994;SDS011;24769;18.712;99.000;2023-02-04T07:46:07;73.50;;;68.25;;
38994;SDS011;24769;18.712;99.000;2023-02-04T07:48:34;76.50;;;72.00;;
38994;SDS011;24769;18.712;99.000;2023-02-04T07:51:00;74.00;;;69.25;;
38994;SDS011;24769;18.712;99.000;2023-02-04T07:53:27;73.25;;;68.00;;
38994;SDS011;24769;18.712;99.000;2023-02-04T07:55:54;69.75;;;60.50;;
38994;SDS011;24769;18.712;99.000;2023-02-04T07:58:20;71.25;;;63.25;;
38994;SDS011;24769;18.712;99.000;2023-02-04T08:00:47;75.50;;;70.25;;
38994;SDS011;24769;18.712;99.000;2023-02-04T08:03:14;72.00;;;66.25;;
38994;SDS011;24769;18.712;99.000;2023-02-04T08:05:40;74.50;;;69.25;;
38994;SDS011;24769;18.712;99.000;2023-02-04T08:08:07;75.00;;;71.50;;
38994;SDS011;24769;18.712;99.000;2023-02-04T08:10:33;72.50;;;65.50;;
38994;SDS011;24769;18.712;99.000;2023-02-04T08:13:00;74.50;;;69.50;;
38994;SDS011;24769;18.712;99.000;2023-02-04T08:15:26;76.00;;;73.00;;
38994;SDS011;24769;18.712;99.000;2023-02-04T08:17:53;69.00;;;59.50;;
38994;SDS011;24769;18.712;99.000;2023-02-04T08:20:19;73.25;;;68.75;;
38994;SDS011;24769;18.712;99.000;2023-02-04T08:22:46;77.50;;;75.00;;
38994;SDS011;24769;18.712;99.000;2023-02-04T08:25:13;75.75;;;71.75;;
38994;SDS011;24769;18.712;99.000;2023-02-04T08:27:39;74.00;;;68.50;;
38994;SDS011;24769;18.712;99.000;2023-02-04T08:30:07;75.00;;;70.00;;
38994;SDS011;24769;18.712;99.000;2023-02-04T08:32:34;74.50;;;70.50;;
38994;SDS011;24769;18.712;99.000;2023-02-04T08:35:01;76.50;;;75.00;;
38994;SDS011;24769;18.712;99.000;2023-02-04T08:37:28;73.75;;;68.00;;
38994;SDS011;24769;18.712;99.000;2023-02-04T08:39:54;71.00;;;63.50;;
38994;SDS011;24769;18.712;99.000;2023-02-04T08:42:21;76.00;;;72.50;;
38994;SDS011;24769;18.712;99.000;2023-02-04T08:44:47;75.00;;;69.75;;
38994;SDS011;24769;18.712;99.000;2023-02-04T08:47:14;77.00;;;74.50;;
38994;SDS011;24769;18.712;99.000;2023-02-04T08:49:40;73.75;;;68.50;;
38994;SDS011;24769;18.712;99.000;2023-02-04T08:52:07;72.25;;;66.00;;
38994;SDS011;24769;18.712;99.000;2023-02-04T08:54:34;71.00;;;64.00;;
38994;SDS011;24769;18.712;99.000;2023-02-04T08:57:01;68.75;;;60.00;;
38994;SDS011;24769;18.712;99.000;2023-02-04T08:59:28;75.00;;;71.50;;
38994;SDS011;24769;18.712;99.000;2023-02-04T09:01:55;74.25;;;69.00;;
38994;SDS011;24769;18.712;99.000;2023-02-04T09:04:22;72.50;;;66.25;;
38994;SDS011;24769;18.712;99.000;2023-02-04T09:06:49;72.50;;;66.50;;
38994;SDS011;24769;18.712;99.000;2023-02-04T09:09:16;70.00;;;61.50;;
38994;SDS011;24769;18.712;99.000;2023-02-04T09:11:43;72.50;;;65.50;;
38994;SDS011;24769;18.712;99.000;2023-02-04T09:14:09;73.00;;;67.00;;
38994;SDS011;24769;18.712;99.000;2023-02-04T09:16:36;73.50;;;68.50;;
38994;SDS011;24769;18.712;99.000;2023-02-04T09:19:03;74.00;;;67.50;;
38994;SDS011;24769;18.712;99.000;2023-02-04T09:21:31;75.00;;;70.00;;
38994;SDS011;24769;18.712;99.000;2023-02-04T09:23:57;76.25;;;73.00;;
38994;SDS011;24769;18.712;99.000;2023-02-04T09:26:24;78.00;;;75.25;;
38994;SDS011;24769;18.712;99.000;2023-02-04T09:28:50;76.00;;;70.00;;
38994;SDS011;24769;18.712;99.000;2023-02-04T09:31:17;73.00;;;67.00;;
38994;SDS011;24769;18.712;99.000;2023-02-04T09:33:43;76.50;;;73.75;;
38994;SDS011;24769;18.712;99.000;2023-02-04T09:36:10;62.50;;;51.50;;
38994;SDS011;24769;18.712;99.000;2023-02-04T09:38:36;79.00;;;76.25;;
38994;SDS011;24769;18.712;99.000;2023-02-04T09:41:04;75.75;;;71.00;;
38994;SDS011;24769;18.712;99.000;2023-02-04T09:43:33;76.50;;;72.75;;
38994;SDS011;24769;18.712;99.000;2023-02-04T09:46:03;77.00;;;73.50;;
38994;SDS011;24769;18.712;99.000;2023-02-04T09:48:32;77.50;;;75.25;;
38994;SDS011;24769;18.712;99.000;2023-02-04T09:51:03;74.75;;;70.25;;
38994;SDS011;24769;18.712;99.000;2023-02-04T09:53:31;76.00;;;73.25;;
38994;SDS011;24769;18.712;99.000;2023-02-04T09:55:59;75.00;;;70.50;;
38994;SDS011;24769;18.712;99.000;2023-02-04T09:58:28;78.50;;;75.00;;
38994;SDS011;24769;18.712;99.000;2023-02-04T10:00:59;74.00;;;66.25;;
38994;SDS011;24769;18.712;99.000;2023-02-04T10:03:33;76.50;;;72.75;;
38994;SDS011;24769;18.712;99.000;2023-02-04T10:06:00;79.75;;;78.25;;
38994;SDS011;24769;18.712;99.000;2023-02-04T10:08:30;76.50;;;73.00;;
38994;SDS011;24769;18.712;99.000;2023-02-04T10:10:58;78.75;;;76.00;;
38994;SDS011;24769;18.712;99.000;2023-02-04T10:13:32;73.00;;;66.75;;
38994;SDS011;24769;18.712;99.000;2023-02-04T10:16:02;76.00;;;72.25;;
38994;SDS011;24769;18.712;99.000;2023-02-04T10:18:35;74.75;;;70.25;;
38994;SDS011;24769;18.712;99.000;2023-02-04T10:21:12;78.00;;;75.00;;
38994;SDS011;24769;18.712;99.000;2023-02-04T10:23:42;78.00;;;74.25;;
38994;SDS011;24769;18.712;99.000;2023-02-04T10:26:14;75.00;;;69.75;;
38994;SDS011;24769;18.712;99.000;2023-02-04T10:28:41;76.25;;;71.75;;
38994;SDS011;24769;18.712;99.000;2023-02-04T10:34:03;77.25;;;73.25;;
38994;SDS011;24769;18.712;99.000;2023-02-04T10:36:31;79.00;;;77.00;;
38994;SDS011;24769;18.712;99.000;2023-02-04T10:38:59;78.50;;;76.50;;
38994;SDS011;24769;18.712;99.000;2023-02-04T10:41:36;76.75;;;74.00;;
38994;SDS011;24769;18.712;99.000;2023-02-04T10:44:08;79.25;;;78.25;;
38994;SDS011;24769;18.712;99.000;2023-02-04T10:46:36;80.25;;;78.50;;
38994;SDS011;24769;18.712;99.000;2023-02-04T10:49:19;78.50;;;76.25;;
38994;SDS011;24769;18.712;99.000;2023-02-04T10:51:47;78.50;;;76.50;;
38994;SDS011;24769;18.712;99.000;2023-02-04T10:54:18;78.75;;;76.25;;
38994;SDS011;24769;18.712;99.000;2023-02-04T10:59:25;77.00;;;73.75;;
38994;SDS011;24769;18.712;99.000;2023-02-04T11:01:56;76.25;;;72.25;;
38994;SDS011;24769;18.712;99.000;2023-02-04T11:04:25;82.75;;;80.50;;
38994;SDS011;24769;18.712;99.000;2023-02-04T11:06:53;80.75;;;80.25;;
38994;SDS011;24769;18.712;99.000;2023-02-04T11:09:20;83.25;;;81.00;;
38994;SDS011;24769;18.712;99.000;2023-02-04T11:11:47;81.50;;;80.50;;
38994;SDS011;24769;18.712;99.000;2023-02-04T11:14:25;85.75;;;85.75;;
38994;SDS011;24769;18.712;99.000;2023-02-04T11:16:54;88.25;;;83.75;;
38994;SDS011;24769;18.712;99.000;2023-02-04T11:19:36;88.00;;;85.75;;
38994;SDS011;24769;18.712;99.000;2023-02-04T11:22:04;85.75;;;83.25;;
38994;SDS011;24769;18.712;99.000;2023-02-04T11:24:33;92.00;;;89.25;;
38994;SDS011;24769;18.712;99.000;2023-02-04T11:27:16;84.75;;;82.25;;
38994;SDS011;24769;18.712;99.000;2023-02-04T11:29:51;88.25;;;88.25;;
38994;SDS011;24769;18.712;99.000;2023-02-04T11:35:41;89.20;;;87.00;;
38994;SDS011;24769;18.712;99.000;2023-02-04T11:37:47;87.25;;;85.25;;
38994;SDS011;24769;18.712;99.000;2023-02-04T11:40:26;89.00;;;88.00;;
38994;SDS011;24769;18.712;99.000;2023-02-04T11:42:57;79.25;;;75.25;;
38994;SDS011;24769;18.712;99.000;2023-02-04T11:47:58;78.50;;;75.25;;
38994;SDS011;24769;18.712;99.000;2023-02-04T11:52:59;81.00;;;78.25;;
38994;SDS011;24769;18.712;99.000;2023-02-04T11:55:27;82.00;;;80.00;;
38994;SDS011;24769;18.712;99.000;2023-02-04T11:58:00;82.50;;;82.00;;
38994;SDS011;24769;18.712;99.000;2023-02-04T12:00:28;76.25;;;71.50;;
38994;SDS011;24769;18.712;99.000;2023-02-04T12:02:57;79.25;;;76.50;;
38994;SDS011;24769;18.712;99.000;2023-02-04T12:05:35;80.25;;;79.75;;
38994;SDS011;24769;18.712;99.000;2023-02-04T12:11:02;82.50;;;82.50;;
38994;SDS011;24769;18.712;99.000;2023-02-04T12:13:47;82.75;;;81.00;;
38994;SDS011;24769;18.712;99.000;2023-02-04T12:16:20;85.80;;;85.20;;
38994;SDS011;24769;18.712;99.000;2023-02-04T12:18:47;75.00;;;69.75;;
38994;SDS011;24769;18.712;99.000;2023-02-04T12:21:14;79.20;;;77.40;;
38994;SDS011;24769;18.712;99.000;2023-02-04T12:23:43;78.25;;;74.75;;
38994;SDS011;24769;18.712;99.000;2023-02-04T12:26:10;86.40;;;86.40;;
38994;SDS011;24769;18.712;99.000;2023-02-04T12:28:37;79.75;;;78.25;;
38994;SDS011;24769;18.712;99.000;2023-02-04T12:31:03;85.25;;;84.50;;
38994;SDS011;24769;18.712;99.000;2023-02-04T12:33:30;83.80;;;82.60;;
38994;SDS011;24769;18.712;99.000;2023-02-04T12:35:56;87.20;;;85.40;;
38994;SDS011;24769;18.712;99.000;2023-02-04T12:38:23;79.80;;;78.20;;
38994;SDS011;24769;18.712;99.000;2023-02-04T12:40:49;84.20;;;84.20;;
38994;SDS011;24769;18.712;99.000;2023-02-04T12:43:16;87.00;;;87.00;;
38994;SDS011;24769;18.712;99.000;2023-02-04T12:45:42;89.00;;;89.00;;
38994;SDS011;24769;18.712;99.000;2023-02-04T12:48:11;87.60;;;87.20;;
38994;SDS011;24769;18.712;99.000;2023-02-04T12:50:38;89.60;;;89.60;;
38994;SDS011;24769;18.712;99.000;2023-02-04T12:53:04;89.20;;;87.60;;
38994;SDS011;24769;18.712;99.000;2023-02-04T12:55:31;96.40;;;96.00;;
38994;SDS011;24769;18.712;99.000;2023-02-04T12:57:58;93.20;;;92.60;;
38994;SDS011;24769;18.712;99.000;2023-02-04T13:00:25;88.40;;;86.60;;
38994;SDS011;24769;18.712;99.000;2023-02-04T13:02:52;104.20;;;103.60;;
38994;SDS011;24769;18.712;99.000;2023-02-04T13:05:23;84.80;;;84.40;;
38994;SDS011;24769;18.712;99.000;2023-02-04T13:07:50;92.40;;;91.40;;
38994;SDS011;24769;18.712;99.000;2023-02-04T13:10:17;95.20;;;93.00;;
38994;SDS011;24769;18.712;99.000;2023-02-04T13:12:46;99.80;;;99.80;;
38994;SDS011;24769;18.712;99.000;2023-02-04T13:15:12;117.40;;;113.20;;
38994;SDS011;24769;18.712;99.000;2023-02-04T13:17:39;114.60;;;114.60;;
38994;SDS011;24769;18.712;99.000;2023-02-04T13:20:05;92.60;;;92.60;;
38994;SDS011;24769;18.712;99.000;2023-02-04T13:22:33;111.00;;;107.80;;
38994;SDS011;24769;18.712;99.000;2023-02-04T13:24:59;95.80;;;93.40;;
38994;SDS011;24769;18.712;99.000;2023-02-04T13:27:26;94.60;;;94.60;;
38994;SDS011;24769;18.712;99.000;2023-02-04T13:29:53;91.40;;;91.00;;
38994;SDS011;24769;18.712;99.000;2023-02-04T13:32:20;101.40;;;99.80;;
38994;SDS011;24769;18.712;99.000;2023-02-04T13:34:46;100.20;;;98.80;;
38994;SDS011;24769;18.712;99.000;2023-02-04T13:37:13;93.20;;;93.20;;
38994;SDS011;24769;18.712;99.000;2023-02-04T13:39:39;85.20;;;84.60;;
38994;SDS011;24769;18.712;99.000;2023-02-04T13:42:06;96.20;;;95.80;;
38994;SDS011;24769;18.712;99.000;2023-02-04T13:44:32;90.40;;;89.80;;
38994;SDS011;24769;18.712;99.000;2023-02-04T13:46:59;92.80;;;90.60;;
38994;SDS011;24769;18.712;99.000;2023-02-04T13:49:25;96.40;;;94.40;;
38994;SDS011;24769;18.712;99.000;2023-02-04T13:51:52;94.80;;;94.80;;
38994;SDS011;24769;18.712;99.000;2023-02-04T13:54:18;96.00;;;94.80;;
38994;SDS011;24769;18.712;99.000;2023-02-04T13:56:45;97.80;;;97.40;;
38994;SDS011;24769;18.712;99.000;2023-02-04T13:59:12;97.60;;;97.00;;
38994;SDS011;24769;18.712;99.000;2023-02-04T14:01:38;99.60;;;97.60;;
38994;SDS011;24769;18.712;99.000;2023-02-04T14:04:09;100.60;;;98.60;;
38994;SDS011;24769;18.712;99.000;2023-02-04T14:06:35;98.80;;;98.80;;
38994;SDS011;24769;18.712;99.000;2023-02-04T14:09:08;101.00;;;100.80;;
38994;SDS011;24769;18.712;99.000;2023-02-04T14:11:37;98.00;;;97.00;;
38994;SDS011;24769;18.712;99.000;2023-02-04T14:14:04;98.60;;;97.80;;
38994;SDS011;24769;18.712;99.000;2023-02-04T14:16:31;103.00;;;101.20;;
38994;SDS011;24769;18.712;99.000;2023-02-04T14:18:58;102.40;;;101.40;;
38994;SDS011;24769;18.712;99.000;2023-02-04T14:21:24;106.60;;;105.40;;